sensor_id;sensor_type;location;lat;lon;timestamp;P1;durP1;ratioP1;P2;durP2;ratioP2
63714;SDS011;49858;48.956;9.076;2022-07-23T00:00:30;9.95;;;6.60;;
63714;SDS011;49858;48.956;9.076;2022-07-23T00:02:59;7.80;;;6.03;;
63714;SDS011;49858;48.956;9.076;2022-07-23T00:05:25;8.82;;;5.28;;
63714;SDS011;49858;48.956;9.076;2022-07-23T00:07:52;8.63;;;6.10;;
63714;SDS011;49858;48.956;9.076;2022-07-23T00:10:19;7.15;;;5.57;;
63714;SDS011;49858;48.956;9.076;2022-07-23T00:12:46;7.97;;;5.70;;
63714;SDS011;49858;48.956;9.076;2022-07-23T00:15:12;9.07;;;6.63;;
63714;SDS011;49858;48.956;9.076;2022-07-23T00:17:39;8.75;;;5.93;;
63714;SDS011;49858;48.956;9.076;2022-07-23T00:20:07;9.68;;;6.10;;
63714;SDS011;49858;48.956;9.076;2022-07-23T00:22:34;7.63;;;5.63;;
63714;SDS011;49858;48.956;9.076;2022-07-23T00:25:01;6.97;;;6.07;;
63714;SDS011;49858;48.956;9.076;2022-07-23T00:27:28;7.75;;;6.30;;
63714;SDS011;49858;48.956;9.076;2022-07-23T00:29:54;7.30;;;5.50;;
63714;SDS011;49858;48.956;9.076;2022-07-23T00:32:21;10.38;;;5.95;;
63714;SDS011;49858;48.956;9.076;2022-07-23T00:34:48;8.02;;;5.85;;
63714;SDS011;49858;48.956;9.076;2022-07-23T00:37:16;7.72;;;5.30;;
63714;SDS011;49858;48.956;9.076;2022-07-23T00:39:43;9.63;;;5.40;;
63714;SDS011;49858;48.956;9.076;2022-07-23T00:42:09;7.28;;;5.63;;
63714;SDS011;49858;48.956;9.076;2022-07-23T00:44:36;9.23;;;5.97;;
63714;SDS011;49858;48.956;9.076;2022-07-23T00:47:03;6.78;;;5.47;;
63714;SDS011;49858;48.956;9.076;2022-07-23T00:49:30;7.90;;;6.15;;
63714;SDS011;49858;48.956;9.076;2022-07-23T00:51:58;18.92;;;5.90;;
63714;SDS011;49858;48.956;9.076;2022-07-23T00:54:30;6.30;;;4.75;;
63714;SDS011;49858;48.956;9.076;2022-07-23T00:56:57;6.40;;;3.75;;
63714;SDS011;49858;48.956;9.076;2022-07-23T00:59:23;5.88;;;4.47;;
63714;SDS011;49858;48.956;9.076;2022-07-23T01:01:50;6.95;;;5.07;;
63714;SDS011;49858;48.956;9.076;2022-07-23T01:04:17;6.75;;;4.13;;
63714;SDS011;49858;48.956;9.076;2022-07-23T01:06:43;6.90;;;5.18;;
63714;SDS011;49858;48.956;9.076;2022-07-23T01:09:10;6.43;;;4.07;;
63714;SDS011;49858;48.956;9.076;2022-07-23T01:11:39;6.20;;;5.30;;
63714;SDS011;49858;48.956;9.076;2022-07-23T01:14:09;7.03;;;5.55;;
63714;SDS011;49858;48.956;9.076;2022-07-23T01:16:37;6.65;;;5.25;;
63714;SDS011;49858;48.956;9.076;2022-07-23T01:19:04;7.15;;;5.30;;
63714;SDS011;49858;48.956;9.076;2022-07-23T01:21:33;7.10;;;5.22;;
63714;SDS011;49858;48.956;9.076;2022-07-23T01:24:03;7.55;;;5.25;;
63714;SDS011;49858;48.956;9.076;2022-07-23T01:26:33;6.47;;;5.18;;
63714;SDS011;49858;48.956;9.076;2022-07-23T01:29:00;7.05;;;5.32;;
63714;SDS011;49858;48.956;9.076;2022-07-23T01:31:27;8.18;;;5.60;;
63714;SDS011;49858;48.956;9.076;2022-07-23T01:33:54;8.77;;;5.80;;
63714;SDS011;49858;48.956;9.076;2022-07-23T01:36:21;9.38;;;5.75;;
63714;SDS011;49858;48.956;9.076;2022-07-23T01:38:48;7.95;;;5.95;;
63714;SDS011;49858;48.956;9.076;2022-07-23T01:41:16;11.27;;;5.30;;
63714;SDS011;49858;48.956;9.076;2022-07-23T01:43:43;7.50;;;5.72;;
63714;SDS011;49858;48.956;9.076;2022-07-23T01:46:10;8.27;;;5.50;;
63714;SDS011;49858;48.956;9.076;2022-07-23T01:48:41;6.60;;;5.38;;
63714;SDS011;49858;48.956;9.076;2022-07-23T01:51:35;6.93;;;4.90;;
63714;SDS011;49858;48.956;9.076;2022-07-23T01:54:08;7.28;;;4.75;;
63714;SDS011;49858;48.956;9.076;2022-07-23T01:56:36;7.70;;;5.30;;
63714;SDS011;49858;48.956;9.076;2022-07-23T01:59:03;8.63;;;6.13;;
63714;SDS011;49858;48.956;9.076;2022-07-23T02:01:30;7.13;;;5.57;;
63714;SDS011;49858;48.956;9.076;2022-07-23T02:03:56;8.90;;;5.93;;
63714;SDS011;49858;48.956;9.076;2022-07-23T02:06:23;8.20;;;5.35;;
63714;SDS011;49858;48.956;9.076;2022-07-23T02:08:50;8.15;;;6.32;;
63714;SDS011;49858;48.956;9.076;2022-07-23T02:11:17;11.07;;;5.07;;
63714;SDS011;49858;48.956;9.076;2022-07-23T02:13:45;9.98;;;4.72;;
63714;SDS011;49858;48.956;9.076;2022-07-23T02:16:11;10.77;;;6.40;;
63714;SDS011;49858;48.956;9.076;2022-07-23T02:18:38;10.27;;;6.22;;
63714;SDS011;49858;48.956;9.076;2022-07-23T02:21:05;7.70;;;6.57;;
63714;SDS011;49858;48.956;9.076;2022-07-23T02:23:32;8.38;;;6.15;;
63714;SDS011;49858;48.956;9.076;2022-07-23T02:25:58;8.20;;;6.68;;
63714;SDS011;49858;48.956;9.076;2022-07-23T02:28:25;9.90;;;5.93;;
63714;SDS011;49858;48.956;9.076;2022-07-23T02:30:53;11.52;;;6.50;;
63714;SDS011;49858;48.956;9.076;2022-07-23T02:33:20;5.40;;;4.32;;
63714;SDS011;49858;48.956;9.076;2022-07-23T02:35:47;7.45;;;5.00;;
63714;SDS011;49858;48.956;9.076;2022-07-23T02:38:14;8.30;;;5.20;;
63714;SDS011;49858;48.956;9.076;2022-07-23T02:40:40;7.82;;;6.20;;
63714;SDS011;49858;48.956;9.076;2022-07-23T02:43:07;9.00;;;6.03;;
63714;SDS011;49858;48.956;9.076;2022-07-23T02:45:34;9.70;;;6.35;;
63714;SDS011;49858;48.956;9.076;2022-07-23T02:48:02;8.40;;;6.07;;
63714;SDS011;49858;48.956;9.076;2022-07-23T02:50:29;10.00;;;5.93;;
63714;SDS011;49858;48.956;9.076;2022-07-23T02:52:58;7.90;;;3.90;;
63714;SDS011;49858;48.956;9.076;2022-07-23T02:55:24;9.80;;;6.30;;
63714;SDS011;49858;48.956;9.076;2022-07-23T02:57:52;9.18;;;6.10;;
63714;SDS011;49858;48.956;9.076;2022-07-23T03:00:18;10.93;;;6.57;;
63714;SDS011;49858;48.956;9.076;2022-07-23T03:02:45;7.75;;;6.03;;
63714;SDS011;49858;48.956;9.076;2022-07-23T03:05:13;8.05;;;5.68;;
63714;SDS011;49858;48.956;9.076;2022-07-23T03:07:40;7.50;;;6.03;;
63714;SDS011;49858;48.956;9.076;2022-07-23T03:10:06;11.23;;;6.50;;
63714;SDS011;49858;48.956;9.076;2022-07-23T03:12:33;7.07;;;5.55;;
63714;SDS011;49858;48.956;9.076;2022-07-23T03:15:01;9.27;;;5.75;;
63714;SDS011;49858;48.956;9.076;2022-07-23T03:17:29;8.35;;;5.97;;
63714;SDS011;49858;48.956;9.076;2022-07-23T03:19:55;13.50;;;6.18;;
63714;SDS011;49858;48.956;9.076;2022-07-23T03:22:24;8.77;;;6.63;;
63714;SDS011;49858;48.956;9.076;2022-07-23T03:24:51;9.23;;;5.93;;
63714;SDS011;49858;48.956;9.076;2022-07-23T03:27:31;9.20;;;6.50;;
63714;SDS011;49858;48.956;9.076;2022-07-23T03:29:58;8.13;;;6.20;;
63714;SDS011;49858;48.956;9.076;2022-07-23T03:32:26;14.43;;;6.03;;
63714;SDS011;49858;48.956;9.076;2022-07-23T03:34:53;10.52;;;7.03;;
63714;SDS011;49858;48.956;9.076;2022-07-23T03:37:19;9.93;;;7.28;;
63714;SDS011;49858;48.956;9.076;2022-07-23T03:39:48;8.13;;;6.10;;
63714;SDS011;49858;48.956;9.076;2022-07-23T03:42:15;9.32;;;5.88;;
63714;SDS011;49858;48.956;9.076;2022-07-23T03:44:44;7.72;;;6.05;;
63714;SDS011;49858;48.956;9.076;2022-07-23T03:47:11;7.53;;;6.15;;
63714;SDS011;49858;48.956;9.076;2022-07-23T03:49:37;7.45;;;5.32;;
63714;SDS011;49858;48.956;9.076;2022-07-23T03:52:05;6.70;;;5.65;;
63714;SDS011;49858;48.956;9.076;2022-07-23T03:54:31;7.20;;;6.05;;
63714;SDS011;49858;48.956;9.076;2022-07-23T03:57:00;8.82;;;6.40;;
63714;SDS011;49858;48.956;9.076;2022-07-23T03:59:27;11.63;;;6.95;;
63714;SDS011;49858;48.956;9.076;2022-07-23T04:01:54;9.43;;;6.60;;
63714;SDS011;49858;48.956;9.076;2022-07-23T04:04:20;8.55;;;6.15;;
63714;SDS011;49858;48.956;9.076;2022-07-23T04:06:47;8.32;;;5.97;;
63714;SDS011;49858;48.956;9.076;2022-07-23T04:09:14;8.40;;;6.13;;
63714;SDS011;49858;48.956;9.076;2022-07-23T04:11:41;8.05;;;6.30;;
63714;SDS011;49858;48.956;9.076;2022-07-23T04:14:09;10.18;;;6.07;;
63714;SDS011;49858;48.956;9.076;2022-07-23T04:16:36;9.60;;;6.55;;
63714;SDS011;49858;48.956;9.076;2022-07-23T04:19:03;6.65;;;5.32;;
63714;SDS011;49858;48.956;9.076;2022-07-23T04:21:35;8.38;;;5.75;;
63714;SDS011;49858;48.956;9.076;2022-07-23T04:24:02;9.18;;;5.75;;
63714;SDS011;49858;48.956;9.076;2022-07-23T04:26:30;8.73;;;5.90;;
63714;SDS011;49858;48.956;9.076;2022-07-23T04:28:56;8.13;;;6.10;;
63714;SDS011;49858;48.956;9.076;2022-07-23T04:31:25;7.13;;;5.70;;
63714;SDS011;49858;48.956;9.076;2022-07-23T04:33:51;7.70;;;5.78;;
63714;SDS011;49858;48.956;9.076;2022-07-23T04:36:19;9.15;;;6.10;;
63714;SDS011;49858;48.956;9.076;2022-07-23T04:38:46;7.45;;;5.60;;
63714;SDS011;49858;48.956;9.076;2022-07-23T04:41:13;8.60;;;6.32;;
63714;SDS011;49858;48.956;9.076;2022-07-23T04:43:39;9.23;;;6.05;;
63714;SDS011;49858;48.956;9.076;2022-07-23T04:46:06;11.48;;;6.88;;
63714;SDS011;49858;48.956;9.076;2022-07-23T04:48:43;12.90;;;6.82;;
63714;SDS011;49858;48.956;9.076;2022-07-23T04:51:09;12.00;;;8.20;;
63714;SDS011;49858;48.956;9.076;2022-07-23T04:53:36;11.45;;;7.50;;
63714;SDS011;49858;48.956;9.076;2022-07-23T04:56:04;10.98;;;6.32;;
63714;SDS011;49858;48.956;9.076;2022-07-23T04:58:32;10.63;;;6.15;;
63714;SDS011;49858;48.956;9.076;2022-07-23T05:00:58;8.93;;;6.47;;
63714;SDS011;49858;48.956;9.076;2022-07-23T05:03:26;8.32;;;6.30;;
63714;SDS011;49858;48.956;9.076;2022-07-23T05:05:54;11.25;;;8.68;;
63714;SDS011;49858;48.956;9.076;2022-07-23T05:08:21;10.55;;;7.95;;
63714;SDS011;49858;48.956;9.076;2022-07-23T05:10:50;7.78;;;6.45;;
63714;SDS011;49858;48.956;9.076;2022-07-23T05:13:19;9.25;;;6.45;;
63714;SDS011;49858;48.956;9.076;2022-07-23T05:15:45;8.63;;;6.20;;
63714;SDS011;49858;48.956;9.076;2022-07-23T05:18:12;8.75;;;6.32;;
63714;SDS011;49858;48.956;9.076;2022-07-23T05:20:40;8.35;;;6.57;;
63714;SDS011;49858;48.956;9.076;2022-07-23T05:23:08;9.10;;;6.38;;
63714;SDS011;49858;48.956;9.076;2022-07-23T05:25:35;8.60;;;6.18;;
63714;SDS011;49858;48.956;9.076;2022-07-23T05:28:02;9.63;;;6.20;;
63714;SDS011;49858;48.956;9.076;2022-07-23T05:30:29;9.70;;;6.30;;
63714;SDS011;49858;48.956;9.076;2022-07-23T05:33:00;8.77;;;6.40;;
63714;SDS011;49858;48.956;9.076;2022-07-23T05:35:26;9.07;;;6.30;;
63714;SDS011;49858;48.956;9.076;2022-07-23T05:38:13;8.55;;;6.25;;
63714;SDS011;49858;48.956;9.076;2022-07-23T05:40:40;7.55;;;6.00;;
63714;SDS011;49858;48.956;9.076;2022-07-23T05:43:07;8.02;;;6.00;;
63714;SDS011;49858;48.956;9.076;2022-07-23T05:45:34;9.48;;;6.35;;
63714;SDS011;49858;48.956;9.076;2022-07-23T05:48:01;8.52;;;5.93;;
63714;SDS011;49858;48.956;9.076;2022-07-23T05:50:33;9.90;;;6.30;;
63714;SDS011;49858;48.956;9.076;2022-07-23T05:53:09;11.52;;;6.57;;
63714;SDS011;49858;48.956;9.076;2022-07-23T05:55:52;11.18;;;6.50;;
63714;SDS011;49858;48.956;9.076;2022-07-23T05:58:19;7.80;;;6.03;;
63714;SDS011;49858;48.956;9.076;2022-07-23T06:00:46;9.95;;;6.45;;
63714;SDS011;49858;48.956;9.076;2022-07-23T06:03:14;8.90;;;6.72;;
63714;SDS011;49858;48.956;9.076;2022-07-23T06:05:41;8.48;;;6.35;;
63714;SDS011;49858;48.956;9.076;2022-07-23T06:08:08;8.90;;;6.35;;
63714;SDS011;49858;48.956;9.076;2022-07-23T06:10:35;9.65;;;6.45;;
63714;SDS011;49858;48.956;9.076;2022-07-23T06:13:03;9.88;;;6.63;;
63714;SDS011;49858;48.956;9.076;2022-07-23T06:15:30;8.48;;;5.95;;
63714;SDS011;49858;48.956;9.076;2022-07-23T06:17:57;8.23;;;6.95;;
63714;SDS011;49858;48.956;9.076;2022-07-23T06:20:24;10.60;;;6.70;;
63714;SDS011;49858;48.956;9.076;2022-07-23T06:22:50;8.90;;;6.38;;
63714;SDS011;49858;48.956;9.076;2022-07-23T06:25:17;10.68;;;6.57;;
63714;SDS011;49858;48.956;9.076;2022-07-23T06:27:45;9.18;;;6.35;;
63714;SDS011;49858;48.956;9.076;2022-07-23T06:30:14;9.02;;;6.50;;
63714;SDS011;49858;48.956;9.076;2022-07-23T06:32:42;9.10;;;6.43;;
63714;SDS011;49858;48.956;9.076;2022-07-23T06:35:09;8.45;;;5.60;;
63714;SDS011;49858;48.956;9.076;2022-07-23T06:37:35;9.52;;;5.97;;
63714;SDS011;49858;48.956;9.076;2022-07-23T06:40:03;9.80;;;7.00;;
63714;SDS011;49858;48.956;9.076;2022-07-23T06:42:34;8.57;;;6.13;;
63714;SDS011;49858;48.956;9.076;2022-07-23T06:45:02;8.30;;;6.35;;
63714;SDS011;49858;48.956;9.076;2022-07-23T06:47:30;7.93;;;4.30;;
63714;SDS011;49858;48.956;9.076;2022-07-23T06:49:57;10.20;;;5.65;;
63714;SDS011;49858;48.956;9.076;2022-07-23T06:52:24;10.27;;;7.60;;
63714;SDS011;49858;48.956;9.076;2022-07-23T06:54:51;13.35;;;7.45;;
63714;SDS011;49858;48.956;9.076;2022-07-23T06:57:18;14.60;;;7.95;;
63714;SDS011;49858;48.956;9.076;2022-07-23T06:59:45;8.95;;;4.85;;
63714;SDS011;49858;48.956;9.076;2022-07-23T07:02:11;8.60;;;4.18;;
63714;SDS011;49858;48.956;9.076;2022-07-23T07:04:39;12.45;;;8.60;;
63714;SDS011;49858;48.956;9.076;2022-07-23T07:07:06;21.20;;;9.77;;
63714;SDS011;49858;48.956;9.076;2022-07-23T07:09:33;19.40;;;10.77;;
63714;SDS011;49858;48.956;9.076;2022-07-23T07:11:59;22.05;;;12.38;;
63714;SDS011;49858;48.956;9.076;2022-07-23T07:14:26;21.10;;;12.77;;
63714;SDS011;49858;48.956;9.076;2022-07-23T07:16:53;26.60;;;13.80;;
63714;SDS011;49858;48.956;9.076;2022-07-23T07:19:20;31.05;;;18.42;;
63714;SDS011;49858;48.956;9.076;2022-07-23T07:21:48;34.45;;;17.15;;
63714;SDS011;49858;48.956;9.076;2022-07-23T07:24:14;33.58;;;16.02;;
63714;SDS011;49858;48.956;9.076;2022-07-23T07:26:41;29.73;;;14.70;;
63714;SDS011;49858;48.956;9.076;2022-07-23T07:29:08;37.22;;;15.43;;
63714;SDS011;49858;48.956;9.076;2022-07-23T07:31:34;35.75;;;16.23;;
63714;SDS011;49858;48.956;9.076;2022-07-23T07:34:01;29.05;;;14.80;;
63714;SDS011;49858;48.956;9.076;2022-07-23T07:36:28;20.75;;;12.98;;
63714;SDS011;49858;48.956;9.076;2022-07-23T07:38:56;17.20;;;10.85;;
63714;SDS011;49858;48.956;9.076;2022-07-23T07:41:23;15.88;;;10.90;;
63714;SDS011;49858;48.956;9.076;2022-07-23T07:43:51;17.40;;;11.55;;
63714;SDS011;49858;48.956;9.076;2022-07-23T07:46:18;18.70;;;12.32;;
63714;SDS011;49858;48.956;9.076;2022-07-23T07:48:44;17.20;;;9.80;;
63714;SDS011;49858;48.956;9.076;2022-07-23T07:51:11;17.88;;;11.68;;
63714;SDS011;49858;48.956;9.076;2022-07-23T07:53:38;17.63;;;11.48;;
63714;SDS011;49858;48.956;9.076;2022-07-23T07:56:06;15.65;;;10.25;;
63714;SDS011;49858;48.956;9.076;2022-07-23T07:58:33;16.90;;;10.48;;
63714;SDS011;49858;48.956;9.076;2022-07-23T08:01:00;19.60;;;11.57;;
63714;SDS011;49858;48.956;9.076;2022-07-23T08:03:27;19.75;;;11.07;;
63714;SDS011;49858;48.956;9.076;2022-07-23T08:05:54;18.60;;;12.60;;
63714;SDS011;49858;48.956;9.076;2022-07-23T08:08:21;22.05;;;14.68;;
63714;SDS011;49858;48.956;9.076;2022-07-23T08:10:47;23.73;;;13.88;;
63714;SDS011;49858;48.956;9.076;2022-07-23T08:13:16;23.25;;;13.43;;
63714;SDS011;49858;48.956;9.076;2022-07-23T08:15:43;21.17;;;15.02;;
63714;SDS011;49858;48.956;9.076;2022-07-23T08:18:10;22.83;;;13.88;;
63714;SDS011;49858;48.956;9.076;2022-07-23T08:20:37;18.35;;;12.20;;
63714;SDS011;49858;48.956;9.076;2022-07-23T08:23:04;13.65;;;9.77;;
63714;SDS011;49858;48.956;9.076;2022-07-23T08:25:33;15.90;;;10.93;;
63714;SDS011;49858;48.956;9.076;2022-07-23T08:28:02;19.90;;;11.63;;
63714;SDS011;49858;48.956;9.076;2022-07-23T08:30:32;18.63;;;11.27;;
63714;SDS011;49858;48.956;9.076;2022-07-23T08:33:00;19.67;;;12.57;;
63714;SDS011;49858;48.956;9.076;2022-07-23T08:35:29;15.23;;;10.43;;
63714;SDS011;49858;48.956;9.076;2022-07-23T08:37:58;18.13;;;10.82;;
63714;SDS011;49858;48.956;9.076;2022-07-23T08:40:26;16.75;;;10.68;;
63714;SDS011;49858;48.956;9.076;2022-07-23T08:42:54;20.35;;;11.50;;
63714;SDS011;49858;48.956;9.076;2022-07-23T08:45:22;19.67;;;12.95;;
63714;SDS011;49858;48.956;9.076;2022-07-23T08:47:52;18.30;;;12.00;;
63714;SDS011;49858;48.956;9.076;2022-07-23T08:50:20;17.98;;;10.57;;
63714;SDS011;49858;48.956;9.076;2022-07-23T08:52:48;18.35;;;11.35;;
63714;SDS011;49858;48.956;9.076;2022-07-23T08:55:15;16.50;;;11.27;;
63714;SDS011;49858;48.956;9.076;2022-07-23T08:57:42;20.73;;;13.55;;
63714;SDS011;49858;48.956;9.076;2022-07-23T09:00:09;18.20;;;11.45;;
63714;SDS011;49858;48.956;9.076;2022-07-23T09:02:38;17.38;;;11.00;;
63714;SDS011;49858;48.956;9.076;2022-07-23T09:05:10;16.90;;;11.50;;
63714;SDS011;49858;48.956;9.076;2022-07-23T09:07:38;18.52;;;10.18;;
63714;SDS011;49858;48.956;9.076;2022-07-23T09:10:25;14.82;;;10.23;;
63714;SDS011;49858;48.956;9.076;2022-07-23T09:12:51;17.92;;;11.10;;
63714;SDS011;49858;48.956;9.076;2022-07-23T09:15:18;14.60;;;8.60;;
63714;SDS011;49858;48.956;9.076;2022-07-23T09:17:44;10.70;;;7.82;;
63714;SDS011;49858;48.956;9.076;2022-07-23T09:20:14;13.73;;;7.60;;
63714;SDS011;49858;48.956;9.076;2022-07-23T09:22:44;11.52;;;7.75;;
63714;SDS011;49858;48.956;9.076;2022-07-23T09:25:12;14.65;;;7.80;;
63714;SDS011;49858;48.956;9.076;2022-07-23T09:27:48;9.25;;;5.80;;
63714;SDS011;49858;48.956;9.076;2022-07-23T09:30:18;7.68;;;5.68;;
63714;SDS011;49858;48.956;9.076;2022-07-23T09:35:49;9.25;;;6.03;;
63714;SDS011;49858;48.956;9.076;2022-07-23T09:38:18;6.65;;;5.35;;
63714;SDS011;49858;48.956;9.076;2022-07-23T09:40:46;14.90;;;6.90;;
63714;SDS011;49858;48.956;9.076;2022-07-23T09:43:31;7.20;;;5.70;;
63714;SDS011;49858;48.956;9.076;2022-07-23T09:48:46;10.00;;;6.53;;
63714;SDS011;49858;48.956;9.076;2022-07-23T09:51:14;9.68;;;6.68;;
63714;SDS011;49858;48.956;9.076;2022-07-23T09:53:42;9.63;;;5.88;;
63714;SDS011;49858;48.956;9.076;2022-07-23T09:56:09;8.85;;;5.70;;
63714;SDS011;49858;48.956;9.076;2022-07-23T09:58:40;7.57;;;5.20;;
63714;SDS011;49858;48.956;9.076;2022-07-23T10:01:14;8.02;;;5.32;;
63714;SDS011;49858;48.956;9.076;2022-07-23T10:03:41;7.68;;;5.28;;
63714;SDS011;49858;48.956;9.076;2022-07-23T10:06:34;6.95;;;5.65;;
63714;SDS011;49858;48.956;9.076;2022-07-23T10:09:22;7.57;;;5.10;;
63714;SDS011;49858;48.956;9.076;2022-07-23T10:12:13;5.97;;;5.20;;
63714;SDS011;49858;48.956;9.076;2022-07-23T10:15:02;6.68;;;4.80;;
63714;SDS011;49858;48.956;9.076;2022-07-23T10:17:30;8.45;;;5.28;;
63714;SDS011;49858;48.956;9.076;2022-07-23T10:19:56;5.85;;;4.80;;
63714;SDS011;49858;48.956;9.076;2022-07-23T10:22:25;6.80;;;4.53;;
63714;SDS011;49858;48.956;9.076;2022-07-23T10:24:58;5.35;;;4.78;;
63714;SDS011;49858;48.956;9.076;2022-07-23T10:27:37;6.20;;;4.40;;
63714;SDS011;49858;48.956;9.076;2022-07-23T10:30:26;5.97;;;4.40;;
63714;SDS011;49858;48.956;9.076;2022-07-23T10:33:00;6.00;;;4.80;;
63714;SDS011;49858;48.956;9.076;2022-07-23T10:35:40;7.00;;;4.88;;
63714;SDS011;49858;48.956;9.076;2022-07-23T10:38:16;8.18;;;4.47;;
63714;SDS011;49858;48.956;9.076;2022-07-23T10:40:54;6.75;;;4.70;;
63714;SDS011;49858;48.956;9.076;2022-07-23T10:43:22;6.47;;;4.00;;
63714;SDS011;49858;48.956;9.076;2022-07-23T10:45:49;4.95;;;4.45;;
63714;SDS011;49858;48.956;9.076;2022-07-23T10:48:18;7.18;;;4.70;;
63714;SDS011;49858;48.956;9.076;2022-07-23T10:59:16;5.60;;;4.43;;
63714;SDS011;49858;48.956;9.076;2022-07-23T11:01:43;7.53;;;5.22;;
63714;SDS011;49858;48.956;9.076;2022-07-23T11:04:10;6.53;;;4.88;;
63714;SDS011;49858;48.956;9.076;2022-07-23T11:07:06;7.90;;;5.30;;
63714;SDS011;49858;48.956;9.076;2022-07-23T11:09:39;6.53;;;5.13;;
63714;SDS011;49858;48.956;9.076;2022-07-23T11:15:00;6.70;;;4.82;;
63714;SDS011;49858;48.956;9.076;2022-07-23T11:17:31;8.23;;;4.82;;
63714;SDS011;49858;48.956;9.076;2022-07-23T11:20:16;6.00;;;5.40;;
63714;SDS011;49858;48.956;9.076;2022-07-23T11:22:46;6.28;;;4.95;;
63714;SDS011;49858;48.956;9.076;2022-07-23T11:25:29;6.57;;;5.43;;
63714;SDS011;49858;48.956;9.076;2022-07-23T11:28:08;6.78;;;5.18;;
63714;SDS011;49858;48.956;9.076;2022-07-23T11:30:42;5.47;;;4.93;;
63714;SDS011;49858;48.956;9.076;2022-07-23T11:33:16;5.82;;;5.10;;
63714;SDS011;49858;48.956;9.076;2022-07-23T11:35:46;7.15;;;5.63;;
63714;SDS011;49858;48.956;9.076;2022-07-23T11:38:16;5.85;;;4.88;;
63714;SDS011;49858;48.956;9.076;2022-07-23T11:40:47;5.93;;;5.13;;
63714;SDS011;49858;48.956;9.076;2022-07-23T11:43:18;6.47;;;5.57;;
63714;SDS011;49858;48.956;9.076;2022-07-23T11:45:45;9.30;;;5.22;;
63714;SDS011;49858;48.956;9.076;2022-07-23T11:48:17;7.10;;;5.35;;
63714;SDS011;49858;48.956;9.076;2022-07-23T11:50:46;7.60;;;5.68;;
63714;SDS011;49858;48.956;9.076;2022-07-23T11:53:13;6.25;;;5.60;;
63714;SDS011;49858;48.956;9.076;2022-07-23T11:55:48;7.38;;;5.20;;
63714;SDS011;49858;48.956;9.076;2022-07-23T11:58:15;6.78;;;5.03;;
63714;SDS011;49858;48.956;9.076;2022-07-23T12:00:42;11.38;;;4.72;;
63714;SDS011;49858;48.956;9.076;2022-07-23T12:03:09;5.93;;;3.80;;
63714;SDS011;49858;48.956;9.076;2022-07-23T12:05:36;8.82;;;6.00;;
63714;SDS011;49858;48.956;9.076;2022-07-23T12:08:04;6.50;;;5.38;;
63714;SDS011;49858;48.956;9.076;2022-07-23T12:10:33;8.57;;;5.95;;
63714;SDS011;49858;48.956;9.076;2022-07-23T12:13:04;7.78;;;5.68;;
63714;SDS011;49858;48.956;9.076;2022-07-23T12:15:32;8.93;;;6.20;;
63714;SDS011;49858;48.956;9.076;2022-07-23T12:18:03;6.85;;;5.90;;
63714;SDS011;49858;48.956;9.076;2022-07-23T12:20:33;7.10;;;6.35;;
63714;SDS011;49858;48.956;9.076;2022-07-23T12:23:04;7.65;;;5.78;;
63714;SDS011;49858;48.956;9.076;2022-07-23T12:25:33;6.43;;;5.70;;
63714;SDS011;49858;48.956;9.076;2022-07-23T12:28:03;6.15;;;5.55;;
63714;SDS011;49858;48.956;9.076;2022-07-23T12:30:36;6.78;;;5.85;;
63714;SDS011;49858;48.956;9.076;2022-07-23T12:33:05;6.90;;;6.18;;
63714;SDS011;49858;48.956;9.076;2022-07-23T12:35:34;7.35;;;6.50;;
63714;SDS011;49858;48.956;9.076;2022-07-23T12:38:03;10.80;;;6.20;;
63714;SDS011;49858;48.956;9.076;2022-07-23T12:40:31;7.80;;;6.63;;
63714;SDS011;49858;48.956;9.076;2022-07-23T12:43:00;7.68;;;5.78;;
63714;SDS011;49858;48.956;9.076;2022-07-23T12:45:41;7.93;;;5.93;;
63714;SDS011;49858;48.956;9.076;2022-07-23T12:48:15;8.60;;;6.55;;
63714;SDS011;49858;48.956;9.076;2022-07-23T12:50:53;8.63;;;7.43;;
63714;SDS011;49858;48.956;9.076;2022-07-23T12:53:23;7.15;;;5.40;;
63714;SDS011;49858;48.956;9.076;2022-07-23T12:55:56;8.48;;;7.07;;
63714;SDS011;49858;48.956;9.076;2022-07-23T12:58:32;8.02;;;6.35;;
63714;SDS011;49858;48.956;9.076;2022-07-23T13:01:06;7.43;;;6.60;;
63714;SDS011;49858;48.956;9.076;2022-07-23T13:03:35;7.05;;;5.95;;
63714;SDS011;49858;48.956;9.076;2022-07-23T13:06:04;7.50;;;6.60;;
63714;SDS011;49858;48.956;9.076;2022-07-23T13:08:33;7.38;;;6.47;;
63714;SDS011;49858;48.956;9.076;2022-07-23T13:11:01;8.00;;;5.75;;
63714;SDS011;49858;48.956;9.076;2022-07-23T13:13:30;7.15;;;4.53;;
63714;SDS011;49858;48.956;9.076;2022-07-23T13:15:58;8.93;;;6.03;;
63714;SDS011;49858;48.956;9.076;2022-07-23T13:18:25;8.25;;;5.65;;
63714;SDS011;49858;48.956;9.076;2022-07-23T13:20:53;7.85;;;6.25;;
63714;SDS011;49858;48.956;9.076;2022-07-23T13:23:21;7.38;;;5.82;;
63714;SDS011;49858;48.956;9.076;2022-07-23T13:25:48;8.00;;;6.20;;
63714;SDS011;49858;48.956;9.076;2022-07-23T13:28:15;7.07;;;5.65;;
63714;SDS011;49858;48.956;9.076;2022-07-23T13:30:44;7.57;;;6.30;;
63714;SDS011;49858;48.956;9.076;2022-07-23T13:33:12;7.10;;;6.05;;
63714;SDS011;49858;48.956;9.076;2022-07-23T13:35:39;7.10;;;6.15;;
63714;SDS011;49858;48.956;9.076;2022-07-23T13:38:06;8.90;;;6.10;;
63714;SDS011;49858;48.956;9.076;2022-07-23T13:40:36;8.77;;;6.32;;
63714;SDS011;49858;48.956;9.076;2022-07-23T13:43:05;7.13;;;6.05;;
63714;SDS011;49858;48.956;9.076;2022-07-23T13:45:32;6.30;;;5.05;;
63714;SDS011;49858;48.956;9.076;2022-07-23T13:48:00;8.40;;;6.03;;
63714;SDS011;49858;48.956;9.076;2022-07-23T13:50:27;7.70;;;6.55;;
63714;SDS011;49858;48.956;9.076;2022-07-23T13:52:54;9.00;;;6.55;;
63714;SDS011;49858;48.956;9.076;2022-07-23T13:55:21;6.53;;;5.55;;
63714;SDS011;49858;48.956;9.076;2022-07-23T13:57:48;6.00;;;4.88;;
63714;SDS011;49858;48.956;9.076;2022-07-23T14:00:15;8.95;;;5.07;;
63714;SDS011;49858;48.956;9.076;2022-07-23T14:02:42;9.23;;;6.18;;
63714;SDS011;49858;48.956;9.076;2022-07-23T14:05:10;9.40;;;6.30;;
63714;SDS011;49858;48.956;9.076;2022-07-23T14:07:39;7.00;;;5.85;;
63714;SDS011;49858;48.956;9.076;2022-07-23T14:10:08;7.90;;;7.00;;
63714;SDS011;49858;48.956;9.076;2022-07-23T14:12:36;8.40;;;6.85;;
63714;SDS011;49858;48.956;9.076;2022-07-23T14:15:04;7.32;;;6.60;;
63714;SDS011;49858;48.956;9.076;2022-07-23T14:17:33;10.65;;;7.40;;
63714;SDS011;49858;48.956;9.076;2022-07-23T14:20:00;7.72;;;6.93;;
63714;SDS011;49858;48.956;9.076;2022-07-23T14:22:29;6.70;;;5.75;;
63714;SDS011;49858;48.956;9.076;2022-07-23T14:24:55;8.05;;;6.45;;
63714;SDS011;49858;48.956;9.076;2022-07-23T14:27:23;9.85;;;6.22;;
63714;SDS011;49858;48.956;9.076;2022-07-23T14:29:51;6.50;;;4.15;;
63714;SDS011;49858;48.956;9.076;2022-07-23T14:32:17;4.88;;;3.50;;
63714;SDS011;49858;48.956;9.076;2022-07-23T14:34:44;8.98;;;5.28;;
63714;SDS011;49858;48.956;9.076;2022-07-23T14:37:11;7.00;;;6.07;;
63714;SDS011;49858;48.956;9.076;2022-07-23T14:39:39;9.85;;;6.53;;
63714;SDS011;49858;48.956;9.076;2022-07-23T14:42:07;7.93;;;6.95;;
63714;SDS011;49858;48.956;9.076;2022-07-23T14:44:34;8.55;;;6.93;;
63714;SDS011;49858;48.956;9.076;2022-07-23T14:47:01;8.60;;;7.07;;
63714;SDS011;49858;48.956;9.076;2022-07-23T14:49:29;10.00;;;7.03;;
63714;SDS011;49858;48.956;9.076;2022-07-23T14:51:56;8.98;;;7.28;;
63714;SDS011;49858;48.956;9.076;2022-07-23T14:54:23;9.15;;;7.03;;
63714;SDS011;49858;48.956;9.076;2022-07-23T14:56:52;10.02;;;7.00;;
63714;SDS011;49858;48.956;9.076;2022-07-23T14:59:20;8.23;;;6.57;;
63714;SDS011;49858;48.956;9.076;2022-07-23T15:01:47;7.45;;;6.75;;
63714;SDS011;49858;48.956;9.076;2022-07-23T15:04:13;7.47;;;6.68;;
63714;SDS011;49858;48.956;9.076;2022-07-23T15:06:40;10.80;;;6.78;;
63714;SDS011;49858;48.956;9.076;2022-07-23T15:09:07;7.65;;;6.70;;